createdAt,value
2019-04-26T00:02:21.141Z,0.00
2019-04-26T00:17:22.333Z,0.00
2019-04-26T00:32:22.474Z,0.00
2019-04-26T00:47:23.323Z,0.00
2019-04-26T01:02:25.083Z,0.00
2019-04-26T01:17:25.166Z,0.00
2019-04-26T01:32:26.124Z,0.00
2019-04-26T01:47:26.509Z,0.00
2019-04-26T02:02:27.689Z,0.00
2019-04-26T02:17:27.831Z,0.00
2019-04-26T02:32:29.427Z,0.00
2019-04-26T02:47:33.170Z,0.00
2019-04-26T03:02:59.385Z,0.00
2019-04-26T07:11:03.043Z,23264.00
2019-04-26T07:26:06.445Z,35232.00
2019-04-26T07:41:07.232Z,26848.00
2019-04-26T07:56:07.392Z,48096.00
2019-04-26T08:11:08.630Z,23840.00
2019-04-26T08:26:09.173Z,30432.00
2019-04-26T08:41:09.877Z,47808.00
2019-04-26T08:56:11.661Z,21856.00
2019-04-26T09:11:23.738Z,20224.00
2019-04-26T09:26:16.863Z,29344.00
2019-04-26T09:41:17.019Z,33024.00
2019-04-26T09:56:17.246Z,30880.00
2019-04-26T10:11:17.423Z,66304.00
2019-04-26T10:26:17.818Z,55904.00
2019-04-26T10:41:17.869Z,92768.00
2019-04-26T10:56:20.186Z,21024.00
2019-04-26T11:11:24.314Z,38688.00
2019-04-26T11:26:24.518Z,68928.00
2019-04-26T11:41:24.745Z,75040.00
2019-04-26T11:56:25.294Z,75712.00
2019-04-26T12:11:33.939Z,67328.00
2019-04-26T12:26:42.280Z,59744.00
2019-04-26T12:41:40.299Z,62976.00
2019-04-26T12:56:40.610Z,57856.00
2019-04-26T13:11:48.772Z,38432.00
2019-04-26T13:26:46.150Z,60576.00
2019-04-26T13:41:46.474Z,54464.00
2019-04-26T13:56:46.682Z,28960.00
2019-04-26T14:11:46.908Z,44064.00
2019-04-26T14:26:47.113Z,39424.00
2019-04-26T14:41:47.594Z,32960.00
2019-04-26T14:56:52.411Z,22080.00
2019-04-26T15:12:00.933Z,9516.00
2019-04-26T15:27:01.836Z,13536.00
2019-04-26T15:42:03.631Z,12748.00
2019-04-26T15:57:06.318Z,6348.00
2019-04-26T16:12:07.105Z,5436.00
2019-04-26T16:27:07.739Z,4320.00
2019-04-26T16:42:07.808Z,2588.00
2019-04-26T16:57:11.353Z,3384.00
2019-04-26T17:12:15.070Z,2936.00
2019-04-26T17:27:16.565Z,2036.00
2019-04-26T17:42:16.647Z,1304.00
2019-04-26T17:57:31.304Z,748.00
2019-04-26T18:12:21.982Z,340.00
2019-04-26T18:27:23.965Z,120.00
2019-04-26T18:42:24.844Z,20.00
2019-04-26T18:57:27.548Z,4.00
2019-04-26T19:12:27.829Z,0.00
2019-04-26T19:27:29.170Z,0.00
2019-04-26T19:42:30.839Z,0.00
2019-04-26T19:57:38.876Z,0.00
2019-04-26T20:12:38.370Z,0.00
2019-04-26T20:27:38.565Z,0.00
2019-04-26T20:42:39.098Z,0.00
2019-04-26T20:57:42.060Z,0.00
2019-04-26T21:12:47.364Z,0.00
2019-04-26T21:27:51.745Z,0.00
2019-04-26T21:42:55.795Z,0.00
2019-04-26T21:57:57.697Z,0.00
2019-04-26T22:13:01.514Z,0.00
2019-04-26T22:28:03.474Z,0.00
2019-04-26T22:43:05.324Z,0.00
2019-04-26T22:58:05.607Z,0.00
2019-04-26T23:13:07.908Z,0.00
2019-04-26T23:28:08.302Z,0.00
2019-04-26T23:43:09.892Z,0.00
2019-04-26T23:58:13.409Z,0.00
